sensor_id;sensor_type;location;lat;lon;timestamp;P1;durP1;ratioP1;P2;durP2;ratioP2
75593;SDS011;64176;49.156;7.810;2023-12-29T00:00:37;10.50;;;6.85;;
75593;SDS011;64176;49.156;7.810;2023-12-29T00:03:21;8.35;;;5.25;;
75593;SDS011;64176;49.156;7.810;2023-12-29T00:06:08;7.47;;;6.28;;
75593;SDS011;64176;49.156;7.810;2023-12-29T00:08:56;8.30;;;6.25;;
75593;SDS011;64176;49.156;7.810;2023-12-29T00:11:40;8.27;;;4.90;;
75593;SDS011;64176;49.156;7.810;2023-12-29T00:14:24;7.15;;;6.22;;
75593;SDS011;64176;49.156;7.810;2023-12-29T00:17:09;6.35;;;4.55;;
75593;SDS011;64176;49.156;7.810;2023-12-29T00:19:53;11.93;;;5.20;;
75593;SDS011;64176;49.156;7.810;2023-12-29T00:22:40;8.20;;;5.72;;
75593;SDS011;64176;49.156;7.810;2023-12-29T00:25:26;7.57;;;5.35;;
75593;SDS011;64176;49.156;7.810;2023-12-29T00:28:10;8.40;;;6.28;;
75593;SDS011;64176;49.156;7.810;2023-12-29T00:30:57;8.23;;;6.20;;
75593;SDS011;64176;49.156;7.810;2023-12-29T00:33:42;8.73;;;5.63;;
75593;SDS011;64176;49.156;7.810;2023-12-29T00:36:31;7.15;;;6.35;;
75593;SDS011;64176;49.156;7.810;2023-12-29T00:39:17;7.25;;;5.72;;
75593;SDS011;64176;49.156;7.810;2023-12-29T00:42:01;6.18;;;5.57;;
75593;SDS011;64176;49.156;7.810;2023-12-29T00:44:45;6.57;;;5.85;;
75593;SDS011;64176;49.156;7.810;2023-12-29T00:47:29;6.25;;;5.03;;
75593;SDS011;64176;49.156;7.810;2023-12-29T00:50:12;5.45;;;4.55;;
75593;SDS011;64176;49.156;7.810;2023-12-29T00:52:56;8.38;;;5.07;;
75593;SDS011;64176;49.156;7.810;2023-12-29T00:55:40;5.72;;;4.00;;
75593;SDS011;64176;49.156;7.810;2023-12-29T00:58:27;8.95;;;6.18;;
75593;SDS011;64176;49.156;7.810;2023-12-29T01:01:11;8.63;;;4.82;;
75593;SDS011;64176;49.156;7.810;2023-12-29T01:04:00;7.43;;;5.40;;
75593;SDS011;64176;49.156;7.810;2023-12-29T01:06:46;6.65;;;4.63;;
75593;SDS011;64176;49.156;7.810;2023-12-29T01:09:36;10.40;;;4.75;;
75593;SDS011;64176;49.156;7.810;2023-12-29T01:12:22;5.80;;;5.18;;
75593;SDS011;64176;49.156;7.810;2023-12-29T01:15:08;7.70;;;5.03;;
75593;SDS011;64176;49.156;7.810;2023-12-29T01:17:53;5.68;;;4.43;;
75593;SDS011;64176;49.156;7.810;2023-12-29T01:20:37;4.63;;;4.10;;
75593;SDS011;64176;49.156;7.810;2023-12-29T01:23:23;7.38;;;6.63;;
75593;SDS011;64176;49.156;7.810;2023-12-29T01:26:09;8.98;;;3.97;;
75593;SDS011;64176;49.156;7.810;2023-12-29T01:28:54;4.95;;;3.28;;
75593;SDS011;64176;49.156;7.810;2023-12-29T01:31:38;7.18;;;4.88;;
75593;SDS011;64176;49.156;7.810;2023-12-29T01:34:26;5.82;;;4.13;;
75593;SDS011;64176;49.156;7.810;2023-12-29T01:37:20;8.55;;;4.43;;
75593;SDS011;64176;49.156;7.810;2023-12-29T01:40:07;4.88;;;3.72;;
75593;SDS011;64176;49.156;7.810;2023-12-29T01:42:51;4.30;;;3.78;;
75593;SDS011;64176;49.156;7.810;2023-12-29T01:45:38;4.35;;;3.90;;
75593;SDS011;64176;49.156;7.810;2023-12-29T01:48:22;4.65;;;3.97;;
75593;SDS011;64176;49.156;7.810;2023-12-29T01:51:08;3.80;;;3.30;;
75593;SDS011;64176;49.156;7.810;2023-12-29T01:53:55;5.90;;;3.88;;
75593;SDS011;64176;49.156;7.810;2023-12-29T01:56:43;5.13;;;3.95;;
75593;SDS011;64176;49.156;7.810;2023-12-29T01:59:31;4.90;;;2.88;;
75593;SDS011;64176;49.156;7.810;2023-12-29T02:02:15;3.92;;;3.05;;
75593;SDS011;64176;49.156;7.810;2023-12-29T02:05:00;6.72;;;3.60;;
75593;SDS011;64176;49.156;7.810;2023-12-29T02:07:45;4.53;;;3.65;;
75593;SDS011;64176;49.156;7.810;2023-12-29T02:10:29;5.18;;;4.00;;
75593;SDS011;64176;49.156;7.810;2023-12-29T02:13:14;4.80;;;3.90;;
75593;SDS011;64176;49.156;7.810;2023-12-29T02:16:00;4.65;;;3.95;;
75593;SDS011;64176;49.156;7.810;2023-12-29T02:18:53;4.50;;;4.10;;
75593;SDS011;64176;49.156;7.810;2023-12-29T02:21:43;4.70;;;4.20;;
75593;SDS011;64176;49.156;7.810;2023-12-29T02:24:30;6.65;;;4.47;;
75593;SDS011;64176;49.156;7.810;2023-12-29T02:33:28;5.60;;;4.57;;
75593;SDS011;64176;49.156;7.810;2023-12-29T02:36:16;5.90;;;4.07;;
75593;SDS011;64176;49.156;7.810;2023-12-29T02:39:02;6.07;;;3.70;;
75593;SDS011;64176;49.156;7.810;2023-12-29T02:41:46;8.02;;;3.95;;
75593;SDS011;64176;49.156;7.810;2023-12-29T02:44:33;5.05;;;3.97;;
75593;SDS011;64176;49.156;7.810;2023-12-29T02:47:17;5.28;;;4.50;;
75593;SDS011;64176;49.156;7.810;2023-12-29T02:50:08;5.70;;;4.40;;
75593;SDS011;64176;49.156;7.810;2023-12-29T02:52:52;5.03;;;4.63;;
75593;SDS011;64176;49.156;7.810;2023-12-29T02:55:36;5.22;;;4.38;;
75593;SDS011;64176;49.156;7.810;2023-12-29T02:58:21;4.70;;;4.28;;
75593;SDS011;64176;49.156;7.810;2023-12-29T03:01:07;4.50;;;3.35;;
75593;SDS011;64176;49.156;7.810;2023-12-29T03:03:52;4.32;;;3.83;;
75593;SDS011;64176;49.156;7.810;2023-12-29T03:06:36;4.53;;;3.88;;
75593;SDS011;64176;49.156;7.810;2023-12-29T03:09:20;4.53;;;4.07;;
75593;SDS011;64176;49.156;7.810;2023-12-29T03:12:04;6.40;;;4.10;;
75593;SDS011;64176;49.156;7.810;2023-12-29T03:14:50;5.03;;;3.10;;
75593;SDS011;64176;49.156;7.810;2023-12-29T03:17:34;5.18;;;3.88;;
75593;SDS011;64176;49.156;7.810;2023-12-29T03:20:18;7.07;;;5.28;;
75593;SDS011;64176;49.156;7.810;2023-12-29T03:23:04;4.22;;;3.42;;
75593;SDS011;64176;49.156;7.810;2023-12-29T03:25:48;5.65;;;3.40;;
75593;SDS011;64176;49.156;7.810;2023-12-29T03:28:35;6.22;;;3.53;;
75593;SDS011;64176;49.156;7.810;2023-12-29T03:31:21;5.63;;;3.70;;
75593;SDS011;64176;49.156;7.810;2023-12-29T03:34:08;4.93;;;4.07;;
75593;SDS011;64176;49.156;7.810;2023-12-29T03:36:52;4.40;;;3.63;;
75593;SDS011;64176;49.156;7.810;2023-12-29T03:39:38;4.10;;;3.70;;
75593;SDS011;64176;49.156;7.810;2023-12-29T03:42:22;5.70;;;4.07;;
75593;SDS011;64176;49.156;7.810;2023-12-29T03:45:06;4.72;;;3.97;;
75593;SDS011;64176;49.156;7.810;2023-12-29T03:47:56;5.15;;;4.65;;
75593;SDS011;64176;49.156;7.810;2023-12-29T03:50:40;4.18;;;3.75;;
75593;SDS011;64176;49.156;7.810;2023-12-29T03:53:24;4.57;;;3.83;;
75593;SDS011;64176;49.156;7.810;2023-12-29T03:56:08;4.82;;;4.38;;
75593;SDS011;64176;49.156;7.810;2023-12-29T03:58:53;7.00;;;4.20;;
75593;SDS011;64176;49.156;7.810;2023-12-29T04:01:42;4.97;;;3.50;;
75593;SDS011;64176;49.156;7.810;2023-12-29T04:04:27;3.97;;;3.38;;
75593;SDS011;64176;49.156;7.810;2023-12-29T04:07:14;5.22;;;3.05;;
75593;SDS011;64176;49.156;7.810;2023-12-29T04:10:03;5.13;;;3.97;;
75593;SDS011;64176;49.156;7.810;2023-12-29T04:12:48;4.50;;;3.08;;
75593;SDS011;64176;49.156;7.810;2023-12-29T04:15:32;3.85;;;3.45;;
75593;SDS011;64176;49.156;7.810;2023-12-29T04:18:16;3.65;;;3.33;;
75593;SDS011;64176;49.156;7.810;2023-12-29T04:21:03;4.68;;;2.95;;
75593;SDS011;64176;49.156;7.810;2023-12-29T04:23:48;5.00;;;3.25;;
75593;SDS011;64176;49.156;7.810;2023-12-29T04:26:35;3.35;;;2.85;;
75593;SDS011;64176;49.156;7.810;2023-12-29T04:29:22;3.80;;;3.38;;
75593;SDS011;64176;49.156;7.810;2023-12-29T04:32:06;3.72;;;3.30;;
75593;SDS011;64176;49.156;7.810;2023-12-29T04:37:40;6.55;;;3.10;;
75593;SDS011;64176;49.156;7.810;2023-12-29T04:40:32;4.50;;;4.10;;
75593;SDS011;64176;49.156;7.810;2023-12-29T04:43:16;3.50;;;3.20;;
75593;SDS011;64176;49.156;7.810;2023-12-29T04:46:00;5.10;;;4.70;;
75593;SDS011;64176;49.156;7.810;2023-12-29T04:48:44;3.20;;;2.90;;
75593;SDS011;64176;49.156;7.810;2023-12-29T04:51:28;3.70;;;2.83;;
75593;SDS011;64176;49.156;7.810;2023-12-29T04:54:14;4.25;;;3.40;;
75593;SDS011;64176;49.156;7.810;2023-12-29T04:56:59;3.90;;;3.33;;
75593;SDS011;64176;49.156;7.810;2023-12-29T04:59:42;3.83;;;3.50;;
75593;SDS011;64176;49.156;7.810;2023-12-29T05:02:26;3.75;;;3.17;;
75593;SDS011;64176;49.156;7.810;2023-12-29T05:05:13;4.38;;;3.72;;
75593;SDS011;64176;49.156;7.810;2023-12-29T05:07:57;4.97;;;4.45;;
75593;SDS011;64176;49.156;7.810;2023-12-29T05:10:41;3.50;;;3.05;;
75593;SDS011;64176;49.156;7.810;2023-12-29T05:13:25;3.40;;;2.92;;
75593;SDS011;64176;49.156;7.810;2023-12-29T05:16:09;8.13;;;3.00;;
75593;SDS011;64176;49.156;7.810;2023-12-29T05:18:55;3.00;;;2.42;;
75593;SDS011;64176;49.156;7.810;2023-12-29T05:21:39;3.35;;;2.55;;
75593;SDS011;64176;49.156;7.810;2023-12-29T05:24:23;3.67;;;3.10;;
75593;SDS011;64176;49.156;7.810;2023-12-29T05:27:07;3.38;;;2.95;;
75593;SDS011;64176;49.156;7.810;2023-12-29T05:29:51;2.90;;;1.88;;
75593;SDS011;64176;49.156;7.810;2023-12-29T05:32:35;3.83;;;3.45;;
75593;SDS011;64176;49.156;7.810;2023-12-29T05:35:22;3.95;;;3.53;;
75593;SDS011;64176;49.156;7.810;2023-12-29T05:38:09;6.05;;;3.53;;
75593;SDS011;64176;49.156;7.810;2023-12-29T05:40:58;4.50;;;3.45;;
75593;SDS011;64176;49.156;7.810;2023-12-29T05:43:42;3.28;;;2.97;;
75593;SDS011;64176;49.156;7.810;2023-12-29T05:46:29;3.50;;;2.72;;
75593;SDS011;64176;49.156;7.810;2023-12-29T05:49:13;4.75;;;2.88;;
75593;SDS011;64176;49.156;7.810;2023-12-29T05:51:57;4.30;;;2.92;;
75593;SDS011;64176;49.156;7.810;2023-12-29T05:54:46;3.15;;;2.85;;
75593;SDS011;64176;49.156;7.810;2023-12-29T05:57:30;3.47;;;2.22;;
75593;SDS011;64176;49.156;7.810;2023-12-29T06:00:14;3.22;;;2.92;;
75593;SDS011;64176;49.156;7.810;2023-12-29T06:02:58;4.22;;;2.92;;
75593;SDS011;64176;49.156;7.810;2023-12-29T06:05:47;3.33;;;2.83;;
75593;SDS011;64176;49.156;7.810;2023-12-29T06:08:34;4.95;;;2.75;;
75593;SDS011;64176;49.156;7.810;2023-12-29T06:11:18;4.85;;;3.88;;
75593;SDS011;64176;49.156;7.810;2023-12-29T06:14:02;5.47;;;4.97;;
75593;SDS011;64176;49.156;7.810;2023-12-29T06:16:47;3.40;;;3.10;;
75593;SDS011;64176;49.156;7.810;2023-12-29T06:19:33;3.53;;;2.97;;
75593;SDS011;64176;49.156;7.810;2023-12-29T06:22:20;2.83;;;2.30;;
75593;SDS011;64176;49.156;7.810;2023-12-29T06:25:04;3.25;;;2.60;;
75593;SDS011;64176;49.156;7.810;2023-12-29T06:27:51;3.08;;;2.45;;
75593;SDS011;64176;49.156;7.810;2023-12-29T06:30:35;4.97;;;3.10;;
75593;SDS011;64176;49.156;7.810;2023-12-29T06:33:19;4.20;;;3.70;;
75593;SDS011;64176;49.156;7.810;2023-12-29T06:36:05;3.25;;;2.45;;
75593;SDS011;64176;49.156;7.810;2023-12-29T06:38:52;7.65;;;4.82;;
75593;SDS011;64176;49.156;7.810;2023-12-29T06:41:36;3.65;;;3.35;;
75593;SDS011;64176;49.156;7.810;2023-12-29T06:44:22;5.97;;;3.88;;
75593;SDS011;64176;49.156;7.810;2023-12-29T06:47:06;3.92;;;2.97;;
75593;SDS011;64176;49.156;7.810;2023-12-29T06:49:50;4.53;;;2.97;;
75593;SDS011;64176;49.156;7.810;2023-12-29T06:52:41;4.47;;;2.85;;
75593;SDS011;64176;49.156;7.810;2023-12-29T06:55:25;2.40;;;2.20;;
75593;SDS011;64176;49.156;7.810;2023-12-29T06:58:09;3.65;;;2.55;;
75593;SDS011;64176;49.156;7.810;2023-12-29T07:00:53;2.63;;;2.00;;
75593;SDS011;64176;49.156;7.810;2023-12-29T07:03:39;3.08;;;2.85;;
75593;SDS011;64176;49.156;7.810;2023-12-29T07:06:23;2.70;;;2.22;;
75593;SDS011;64176;49.156;7.810;2023-12-29T07:09:07;3.38;;;2.42;;
75593;SDS011;64176;49.156;7.810;2023-12-29T07:11:53;3.70;;;3.13;;
75593;SDS011;64176;49.156;7.810;2023-12-29T07:14:40;2.15;;;1.90;;
75593;SDS011;64176;49.156;7.810;2023-12-29T07:17:25;2.72;;;1.83;;
75593;SDS011;64176;49.156;7.810;2023-12-29T07:20:09;4.50;;;1.95;;
75593;SDS011;64176;49.156;7.810;2023-12-29T07:22:56;2.53;;;2.30;;
75593;SDS011;64176;49.156;7.810;2023-12-29T07:25:40;3.60;;;1.85;;
75593;SDS011;64176;49.156;7.810;2023-12-29T07:28:25;4.38;;;2.65;;
75593;SDS011;64176;49.156;7.810;2023-12-29T07:31:09;1.92;;;1.83;;
75593;SDS011;64176;49.156;7.810;2023-12-29T07:33:59;3.42;;;1.55;;
75593;SDS011;64176;49.156;7.810;2023-12-29T07:36:43;2.05;;;1.88;;
75593;SDS011;64176;49.156;7.810;2023-12-29T07:39:27;2.17;;;1.50;;
75593;SDS011;64176;49.156;7.810;2023-12-29T07:42:18;3.15;;;2.15;;
75593;SDS011;64176;49.156;7.810;2023-12-29T07:45:02;2.20;;;1.90;;
75593;SDS011;64176;49.156;7.810;2023-12-29T07:47:47;6.07;;;2.13;;
75593;SDS011;64176;49.156;7.810;2023-12-29T07:50:36;6.50;;;3.75;;
75593;SDS011;64176;49.156;7.810;2023-12-29T07:53:20;3.10;;;2.70;;
75593;SDS011;64176;49.156;7.810;2023-12-29T07:56:06;3.67;;;2.40;;
75593;SDS011;64176;49.156;7.810;2023-12-29T07:58:50;2.25;;;1.75;;
75593;SDS011;64176;49.156;7.810;2023-12-29T08:01:37;2.50;;;2.30;;
75593;SDS011;64176;49.156;7.810;2023-12-29T08:04:23;2.63;;;2.00;;
75593;SDS011;64176;49.156;7.810;2023-12-29T08:07:07;2.42;;;1.83;;
75593;SDS011;64176;49.156;7.810;2023-12-29T08:09:51;2.45;;;2.35;;
75593;SDS011;64176;49.156;7.810;2023-12-29T08:12:35;2.45;;;2.15;;
75593;SDS011;64176;49.156;7.810;2023-12-29T08:15:22;4.13;;;2.33;;
75593;SDS011;64176;49.156;7.810;2023-12-29T08:18:06;3.08;;;2.53;;
75593;SDS011;64176;49.156;7.810;2023-12-29T08:20:50;5.90;;;2.75;;
75593;SDS011;64176;49.156;7.810;2023-12-29T08:23:34;3.42;;;2.28;;
75593;SDS011;64176;49.156;7.810;2023-12-29T08:26:21;3.28;;;2.17;;
75593;SDS011;64176;49.156;7.810;2023-12-29T08:29:05;3.03;;;2.65;;
75593;SDS011;64176;49.156;7.810;2023-12-29T08:31:52;4.32;;;2.25;;
75593;SDS011;64176;49.156;7.810;2023-12-29T08:34:36;2.80;;;2.13;;
75593;SDS011;64176;49.156;7.810;2023-12-29T08:37:21;2.28;;;2.08;;
75593;SDS011;64176;49.156;7.810;2023-12-29T08:40:05;3.15;;;2.28;;
75593;SDS011;64176;49.156;7.810;2023-12-29T08:42:51;2.33;;;2.13;;
75593;SDS011;64176;49.156;7.810;2023-12-29T08:45:38;2.35;;;2.15;;
75593;SDS011;64176;49.156;7.810;2023-12-29T08:48:22;2.42;;;1.80;;
75593;SDS011;64176;49.156;7.810;2023-12-29T08:51:07;2.20;;;1.65;;
75593;SDS011;64176;49.156;7.810;2023-12-29T08:53:56;3.85;;;2.88;;
75593;SDS011;64176;49.156;7.810;2023-12-29T08:56:40;6.57;;;5.88;;
75593;SDS011;64176;49.156;7.810;2023-12-29T08:59:24;2.65;;;2.05;;
75593;SDS011;64176;49.156;7.810;2023-12-29T09:02:08;2.55;;;2.35;;
75593;SDS011;64176;49.156;7.810;2023-12-29T09:04:52;5.80;;;4.97;;
75593;SDS011;64176;49.156;7.810;2023-12-29T09:07:36;6.18;;;5.65;;
75593;SDS011;64176;49.156;7.810;2023-12-29T09:10:22;5.10;;;4.60;;
75593;SDS011;64176;49.156;7.810;2023-12-29T09:13:11;3.20;;;2.88;;
75593;SDS011;64176;49.156;7.810;2023-12-29T09:15:55;2.00;;;1.80;;
75593;SDS011;64176;49.156;7.810;2023-12-29T09:18:42;3.17;;;1.83;;
75593;SDS011;64176;49.156;7.810;2023-12-29T09:21:26;3.75;;;1.60;;
75593;SDS011;64176;49.156;7.810;2023-12-29T09:24:15;2.15;;;1.98;;
75593;SDS011;64176;49.156;7.810;2023-12-29T09:27:01;2.58;;;2.17;;
75593;SDS011;64176;49.156;7.810;2023-12-29T09:29:49;1.77;;;1.67;;
75593;SDS011;64176;49.156;7.810;2023-12-29T09:32:36;2.10;;;1.90;;
75593;SDS011;64176;49.156;7.810;2023-12-29T09:35:20;4.70;;;3.47;;
75593;SDS011;64176;49.156;7.810;2023-12-29T09:38:04;4.30;;;3.45;;
75593;SDS011;64176;49.156;7.810;2023-12-29T09:40:48;2.58;;;2.38;;
75593;SDS011;64176;49.156;7.810;2023-12-29T09:43:33;3.25;;;2.40;;
75593;SDS011;64176;49.156;7.810;2023-12-29T09:46:18;4.22;;;1.70;;
75593;SDS011;64176;49.156;7.810;2023-12-29T09:49:05;4.13;;;3.22;;
75593;SDS011;64176;49.156;7.810;2023-12-29T09:51:57;2.42;;;2.22;;
75593;SDS011;64176;49.156;7.810;2023-12-29T09:54:43;2.92;;;2.70;;
75593;SDS011;64176;49.156;7.810;2023-12-29T09:57:28;2.97;;;2.78;;
75593;SDS011;64176;49.156;7.810;2023-12-29T10:00:15;2.10;;;1.90;;
75593;SDS011;64176;49.156;7.810;2023-12-29T10:03:02;2.72;;;1.42;;
75593;SDS011;64176;49.156;7.810;2023-12-29T10:05:52;1.77;;;1.67;;
75593;SDS011;64176;49.156;7.810;2023-12-29T10:08:41;2.20;;;1.70;;
75593;SDS011;64176;49.156;7.810;2023-12-29T10:11:29;2.58;;;1.52;;
75593;SDS011;64176;49.156;7.810;2023-12-29T10:14:22;1.73;;;1.60;;
75593;SDS011;64176;49.156;7.810;2023-12-29T10:20:23;2.88;;;2.67;;
75593;SDS011;64176;49.156;7.810;2023-12-29T10:23:23;2.72;;;2.42;;
75593;SDS011;64176;49.156;7.810;2023-12-29T10:26:18;2.53;;;1.65;;
75593;SDS011;64176;49.156;7.810;2023-12-29T10:29:03;6.35;;;2.00;;
75593;SDS011;64176;49.156;7.810;2023-12-29T10:31:47;2.40;;;2.20;;
75593;SDS011;64176;49.156;7.810;2023-12-29T10:34:32;1.52;;;1.40;;
75593;SDS011;64176;49.156;7.810;2023-12-29T10:37:24;2.15;;;1.95;;
75593;SDS011;64176;49.156;7.810;2023-12-29T10:40:08;3.10;;;2.50;;
75593;SDS011;64176;49.156;7.810;2023-12-29T10:42:53;2.65;;;2.20;;
75593;SDS011;64176;49.156;7.810;2023-12-29T10:45:38;2.78;;;1.30;;
75593;SDS011;64176;49.156;7.810;2023-12-29T10:48:24;1.65;;;1.50;;
75593;SDS011;64176;49.156;7.810;2023-12-29T10:51:08;1.92;;;1.80;;
75593;SDS011;64176;49.156;7.810;2023-12-29T10:53:56;1.30;;;1.02;;
75593;SDS011;64176;49.156;7.810;2023-12-29T10:56:40;1.77;;;1.67;;
75593;SDS011;64176;49.156;7.810;2023-12-29T10:59:26;1.77;;;1.63;;
75593;SDS011;64176;49.156;7.810;2023-12-29T11:02:13;2.47;;;2.38;;
75593;SDS011;64176;49.156;7.810;2023-12-29T11:07:47;2.53;;;2.33;;
75593;SDS011;64176;49.156;7.810;2023-12-29T11:10:31;2.65;;;2.45;;
75593;SDS011;64176;49.156;7.810;2023-12-29T11:13:15;1.60;;;1.45;;
75593;SDS011;64176;49.156;7.810;2023-12-29T11:16:00;2.53;;;1.10;;
75593;SDS011;64176;49.156;7.810;2023-12-29T11:18:47;2.30;;;1.48;;
75593;SDS011;64176;49.156;7.810;2023-12-29T11:21:38;1.83;;;1.73;;
75593;SDS011;64176;49.156;7.810;2023-12-29T11:24:23;2.47;;;2.28;;
75593;SDS011;64176;49.156;7.810;2023-12-29T11:27:12;2.28;;;2.05;;
75593;SDS011;64176;49.156;7.810;2023-12-29T11:29:59;2.75;;;2.55;;
75593;SDS011;64176;49.156;7.810;2023-12-29T11:32:51;3.38;;;3.08;;
75593;SDS011;64176;49.156;7.810;2023-12-29T11:41:44;3.05;;;2.85;;
75593;SDS011;64176;49.156;7.810;2023-12-29T11:44:42;2.20;;;1.67;;
75593;SDS011;64176;49.156;7.810;2023-12-29T11:47:34;2.55;;;2.35;;
75593;SDS011;64176;49.156;7.810;2023-12-29T11:50:32;3.45;;;2.42;;
75593;SDS011;64176;49.156;7.810;2023-12-29T11:53:32;2.35;;;2.15;;
75593;SDS011;64176;49.156;7.810;2023-12-29T11:56:16;2.63;;;2.13;;
75593;SDS011;64176;49.156;7.810;2023-12-29T11:59:34;3.28;;;2.40;;
75593;SDS011;64176;49.156;7.810;2023-12-29T12:02:26;2.20;;;2.00;;
75593;SDS011;64176;49.156;7.810;2023-12-29T12:05:11;3.45;;;3.15;;
75593;SDS011;64176;49.156;7.810;2023-12-29T12:07:57;3.00;;;2.75;;
75593;SDS011;64176;49.156;7.810;2023-12-29T12:10:46;2.78;;;2.58;;
75593;SDS011;64176;49.156;7.810;2023-12-29T12:13:51;2.38;;;2.17;;
75593;SDS011;64176;49.156;7.810;2023-12-29T12:19:29;2.40;;;1.83;;
75593;SDS011;64176;49.156;7.810;2023-12-29T12:22:18;2.67;;;2.47;;
75593;SDS011;64176;49.156;7.810;2023-12-29T12:25:08;3.47;;;2.55;;
75593;SDS011;64176;49.156;7.810;2023-12-29T12:27:55;2.38;;;1.70;;
75593;SDS011;64176;49.156;7.810;2023-12-29T12:30:39;3.65;;;3.35;;
75593;SDS011;64176;49.156;7.810;2023-12-29T12:33:24;3.92;;;3.10;;
75593;SDS011;64176;49.156;7.810;2023-12-29T12:36:11;11.25;;;10.25;;
75593;SDS011;64176;49.156;7.810;2023-12-29T12:38:56;5.18;;;4.35;;
75593;SDS011;64176;49.156;7.810;2023-12-29T12:41:41;2.90;;;2.67;;
75593;SDS011;64176;49.156;7.810;2023-12-29T12:44:25;2.80;;;2.60;;
75593;SDS011;64176;49.156;7.810;2023-12-29T12:47:19;1.83;;;1.30;;
75593;SDS011;64176;49.156;7.810;2023-12-29T12:50:09;3.83;;;3.42;;
75593;SDS011;64176;49.156;7.810;2023-12-29T12:52:56;2.58;;;2.30;;
75593;SDS011;64176;49.156;7.810;2023-12-29T12:55:42;2.30;;;2.10;;
75593;SDS011;64176;49.156;7.810;2023-12-29T12:58:31;4.13;;;2.40;;
75593;SDS011;64176;49.156;7.810;2023-12-29T13:01:15;3.08;;;2.28;;
75593;SDS011;64176;49.156;7.810;2023-12-29T13:04:01;2.85;;;2.63;;
75593;SDS011;64176;49.156;7.810;2023-12-29T13:06:52;3.53;;;2.95;;
75593;SDS011;64176;49.156;7.810;2023-12-29T13:09:39;7.78;;;3.67;;
75593;SDS011;64176;49.156;7.810;2023-12-29T13:12:23;4.82;;;3.25;;
75593;SDS011;64176;49.156;7.810;2023-12-29T13:15:08;4.00;;;3.10;;
75593;SDS011;64176;49.156;7.810;2023-12-29T13:17:55;3.30;;;2.95;;
75593;SDS011;64176;49.156;7.810;2023-12-29T13:20:46;4.97;;;2.53;;
75593;SDS011;64176;49.156;7.810;2023-12-29T13:23:33;3.58;;;2.60;;
75593;SDS011;64176;49.156;7.810;2023-12-29T13:26:18;2.90;;;2.55;;
75593;SDS011;64176;49.156;7.810;2023-12-29T13:29:05;5.90;;;5.28;;
75593;SDS011;64176;49.156;7.810;2023-12-29T13:31:49;5.10;;;4.15;;
75593;SDS011;64176;49.156;7.810;2023-12-29T13:37:52;4.18;;;3.75;;
75593;SDS011;64176;49.156;7.810;2023-12-29T13:43:33;13.60;;;8.23;;
75593;SDS011;64176;49.156;7.810;2023-12-29T13:46:21;2.75;;;2.55;;
75593;SDS011;64176;49.156;7.810;2023-12-29T13:49:06;6.28;;;5.70;;
75593;SDS011;64176;49.156;7.810;2023-12-29T13:51:54;6.32;;;4.53;;
75593;SDS011;64176;49.156;7.810;2023-12-29T13:54:41;18.33;;;12.48;;
75593;SDS011;64176;49.156;7.810;2023-12-29T13:57:29;11.23;;;7.63;;
75593;SDS011;64176;49.156;7.810;2023-12-29T14:00:16;6.97;;;4.50;;
75593;SDS011;64176;49.156;7.810;2023-12-29T14:03:15;11.85;;;7.18;;
75593;SDS011;64176;49.156;7.810;2023-12-29T14:06:11;13.05;;;6.45;;
75593;SDS011;64176;49.156;7.810;2023-12-29T14:09:06;14.27;;;8.00;;
75593;SDS011;64176;49.156;7.810;2023-12-29T14:11:52;12.43;;;5.25;;
75593;SDS011;64176;49.156;7.810;2023-12-29T14:14:37;2.72;;;1.63;;
75593;SDS011;64176;49.156;7.810;2023-12-29T14:17:21;14.40;;;6.60;;
75593;SDS011;64176;49.156;7.810;2023-12-29T14:20:10;42.15;;;17.55;;
75593;SDS011;64176;49.156;7.810;2023-12-29T14:23:03;22.33;;;9.13;;
75593;SDS011;64176;49.156;7.810;2023-12-29T14:25:48;46.95;;;18.45;;
75593;SDS011;64176;49.156;7.810;2023-12-29T14:28:34;15.52;;;7.53;;
75593;SDS011;64176;49.156;7.810;2023-12-29T14:31:18;8.52;;;3.05;;
75593;SDS011;64176;49.156;7.810;2023-12-29T14:34:03;6.57;;;3.47;;
75593;SDS011;64176;49.156;7.810;2023-12-29T14:36:50;16.73;;;6.93;;
75593;SDS011;64176;49.156;7.810;2023-12-29T14:39:39;21.23;;;7.88;;
75593;SDS011;64176;49.156;7.810;2023-12-29T14:42:31;28.27;;;12.15;;
75593;SDS011;64176;49.156;7.810;2023-12-29T14:45:15;6.47;;;3.70;;
75593;SDS011;64176;49.156;7.810;2023-12-29T14:48:01;2.60;;;2.40;;
75593;SDS011;64176;49.156;7.810;2023-12-29T14:50:46;30.95;;;17.38;;
75593;SDS011;64176;49.156;7.810;2023-12-29T14:53:37;55.78;;;30.10;;
75593;SDS011;64176;49.156;7.810;2023-12-29T14:56:22;36.88;;;19.65;;
75593;SDS011;64176;49.156;7.810;2023-12-29T14:59:06;28.55;;;16.30;;
75593;SDS011;64176;49.156;7.810;2023-12-29T15:01:51;11.35;;;5.88;;
75593;SDS011;64176;49.156;7.810;2023-12-29T15:04:37;35.78;;;21.48;;
75593;SDS011;64176;49.156;7.810;2023-12-29T15:07:26;15.32;;;11.20;;
75593;SDS011;64176;49.156;7.810;2023-12-29T15:10:14;16.77;;;12.52;;
75593;SDS011;64176;49.156;7.810;2023-12-29T15:12:58;8.02;;;5.28;;
75593;SDS011;64176;49.156;7.810;2023-12-29T15:15:45;10.73;;;6.55;;
75593;SDS011;64176;49.156;7.810;2023-12-29T15:18:30;7.10;;;4.43;;
75593;SDS011;64176;49.156;7.810;2023-12-29T15:21:16;4.78;;;3.38;;
75593;SDS011;64176;49.156;7.810;2023-12-29T15:24:05;4.82;;;2.50;;
75593;SDS011;64176;49.156;7.810;2023-12-29T15:26:49;4.43;;;2.08;;
75593;SDS011;64176;49.156;7.810;2023-12-29T15:29:33;3.83;;;3.30;;
75593;SDS011;64176;49.156;7.810;2023-12-29T15:32:20;2.47;;;1.98;;
75593;SDS011;64176;49.156;7.810;2023-12-29T15:35:04;4.07;;;3.00;;
75593;SDS011;64176;49.156;7.810;2023-12-29T15:37:48;3.95;;;1.73;;
75593;SDS011;64176;49.156;7.810;2023-12-29T15:40:34;2.15;;;1.60;;
75593;SDS011;64176;49.156;7.810;2023-12-29T15:43:19;3.70;;;3.00;;
75593;SDS011;64176;49.156;7.810;2023-12-29T15:46:11;3.92;;;2.53;;
75593;SDS011;64176;49.156;7.810;2023-12-29T15:48:58;3.72;;;1.73;;
75593;SDS011;64176;49.156;7.810;2023-12-29T15:51:44;2.15;;;1.70;;
75593;SDS011;64176;49.156;7.810;2023-12-29T15:54:28;2.53;;;1.70;;
75593;SDS011;64176;49.156;7.810;2023-12-29T15:57:15;2.45;;;1.60;;
75593;SDS011;64176;49.156;7.810;2023-12-29T15:59:59;4.93;;;1.77;;
75593;SDS011;64176;49.156;7.810;2023-12-29T16:02:46;2.95;;;1.85;;
75593;SDS011;64176;49.156;7.810;2023-12-29T16:05:30;4.22;;;2.35;;
75593;SDS011;64176;49.156;7.810;2023-12-29T16:08:14;2.63;;;2.42;;
75593;SDS011;64176;49.156;7.810;2023-12-29T16:13:47;2.38;;;2.17;;
75593;SDS011;64176;49.156;7.810;2023-12-29T16:16:32;2.75;;;2.28;;
75593;SDS011;64176;49.156;7.810;2023-12-29T16:19:26;2.58;;;1.90;;
75593;SDS011;64176;49.156;7.810;2023-12-29T16:22:12;3.55;;;2.15;;
75593;SDS011;64176;49.156;7.810;2023-12-29T16:24:56;3.80;;;2.47;;
75593;SDS011;64176;49.156;7.810;2023-12-29T16:27:44;3.95;;;2.72;;
75593;SDS011;64176;49.156;7.810;2023-12-29T16:30:28;4.28;;;3.13;;
75593;SDS011;64176;49.156;7.810;2023-12-29T16:33:15;3.45;;;1.80;;
75593;SDS011;64176;49.156;7.810;2023-12-29T16:38:55;3.38;;;2.58;;
75593;SDS011;64176;49.156;7.810;2023-12-29T16:41:40;2.65;;;2.38;;
75593;SDS011;64176;49.156;7.810;2023-12-29T16:44:27;3.60;;;2.47;;
75593;SDS011;64176;49.156;7.810;2023-12-29T16:47:18;5.57;;;2.58;;
75593;SDS011;64176;49.156;7.810;2023-12-29T16:50:05;3.67;;;3.38;;
75593;SDS011;64176;49.156;7.810;2023-12-29T16:52:49;3.63;;;3.33;;
75593;SDS011;64176;49.156;7.810;2023-12-29T16:55:36;4.55;;;3.08;;
75593;SDS011;64176;49.156;7.810;2023-12-29T16:58:22;2.90;;;2.50;;
75593;SDS011;64176;49.156;7.810;2023-12-29T17:01:06;3.85;;;2.33;;
75593;SDS011;64176;49.156;7.810;2023-12-29T17:03:52;8.05;;;6.20;;
75593;SDS011;64176;49.156;7.810;2023-12-29T17:06:37;4.43;;;4.03;;
75593;SDS011;64176;49.156;7.810;2023-12-29T17:09:23;6.25;;;3.70;;
75593;SDS011;64176;49.156;7.810;2023-12-29T17:12:07;5.15;;;4.35;;
75593;SDS011;64176;49.156;7.810;2023-12-29T17:14:52;5.25;;;4.72;;